createdAt,value
2019-03-17T00:03:02.594Z,83.73
2019-03-17T00:06:08.010Z,84.13
2019-03-17T00:09:16.547Z,84.16
2019-03-17T00:12:21.964Z,84.59
2019-03-17T00:15:27.363Z,84.55
2019-03-17T00:18:32.632Z,83.83
2019-03-17T00:21:37.876Z,83.95
2019-03-17T00:24:43.144Z,83.66
2019-03-17T00:27:48.395Z,83.73
2019-03-17T00:30:53.666Z,83.85
2019-03-17T00:33:59.007Z,83.85
2019-03-17T00:37:04.337Z,83.55
2019-03-17T00:40:10.003Z,83.95
2019-03-17T00:43:15.388Z,83.49
2019-03-17T00:46:20.687Z,83.52
2019-03-17T00:49:25.938Z,83.76
2019-03-17T00:52:31.182Z,83.92
2019-03-17T00:55:36.440Z,83.56
2019-03-17T00:58:41.682Z,83.81
2019-03-17T01:01:52.012Z,84.06
2019-03-17T01:04:56.336Z,84.09
2019-03-17T01:08:01.181Z,84.26
2019-03-17T01:11:06.492Z,85.14
2019-03-17T01:14:11.921Z,85.15
2019-03-17T01:17:17.143Z,85.01
2019-03-17T01:20:22.533Z,85.40
2019-03-17T01:23:27.812Z,84.89
2019-03-17T01:26:33.165Z,85.20
2019-03-17T01:29:39.986Z,84.39
2019-03-17T01:32:45.423Z,84.90
2019-03-17T01:35:50.813Z,84.72
2019-03-17T01:38:56.222Z,85.27
2019-03-17T01:42:01.640Z,85.25
2019-03-17T01:45:07.125Z,84.97
2019-03-17T01:48:12.509Z,85.07
2019-03-17T01:51:19.489Z,84.95
2019-03-17T01:54:29.144Z,84.35
2019-03-17T01:57:34.437Z,85.19
2019-03-17T02:00:39.644Z,85.85
2019-03-17T02:03:44.892Z,85.89
2019-03-17T02:06:50.161Z,85.69
2019-03-17T02:09:55.456Z,86.53
2019-03-17T02:13:00.693Z,85.66
2019-03-17T02:16:05.984Z,86.27
2019-03-17T02:19:11.208Z,86.33
2019-03-17T02:22:16.467Z,87.45
2019-03-17T02:25:21.806Z,87.23
2019-03-17T02:28:27.090Z,87.62
2019-03-17T02:31:32.349Z,88.07
2019-03-17T02:34:37.660Z,87.20
2019-03-17T02:37:43.006Z,87.47
2019-03-17T02:40:48.284Z,87.75
2019-03-17T02:43:53.548Z,87.22
2019-03-17T02:46:58.987Z,86.93
2019-03-17T02:50:04.433Z,87.01
2019-03-17T02:53:09.768Z,86.24
2019-03-17T02:56:15.030Z,85.70
2019-03-17T02:59:20.589Z,85.34
2019-03-17T03:02:25.828Z,86.55
2019-03-17T03:05:31.158Z,85.53
2019-03-17T03:08:36.404Z,85.14
2019-03-17T03:11:41.714Z,85.17
2019-03-17T03:15:06.461Z,85.03
2019-03-17T03:18:11.781Z,84.50
2019-03-17T03:21:17.016Z,85.05
2019-03-17T03:24:22.270Z,85.09
2019-03-17T03:27:27.522Z,85.26
2019-03-17T03:30:32.774Z,84.81
2019-03-17T03:33:38.179Z,85.47
2019-03-17T03:36:43.411Z,85.72
2019-03-17T03:39:48.709Z,84.89
2019-03-17T03:42:54.048Z,85.14
2019-03-17T03:45:59.324Z,85.93
2019-03-17T03:49:04.727Z,85.44
2019-03-17T03:52:10.070Z,85.72
2019-03-17T03:55:15.296Z,84.89
2019-03-17T03:58:20.551Z,85.46
2019-03-17T04:01:25.841Z,84.42
2019-03-17T04:04:31.176Z,84.80
2019-03-17T04:07:36.427Z,85.46
2019-03-17T04:10:41.712Z,84.78
2019-03-17T04:13:47.121Z,85.81
2019-03-17T04:16:52.356Z,85.45
2019-03-17T04:19:58.933Z,85.33
2019-03-17T04:23:04.273Z,84.03
2019-03-17T04:26:09.615Z,84.69
2019-03-17T04:29:14.881Z,85.34
2019-03-17T04:32:20.121Z,84.28
2019-03-17T04:35:25.418Z,85.36
2019-03-17T04:38:30.644Z,84.98
2019-03-17T04:41:35.870Z,84.12
2019-03-17T04:44:41.150Z,83.92
2019-03-17T04:47:46.358Z,84.30
2019-03-17T04:50:51.714Z,85.12
2019-03-17T04:53:57.064Z,85.37
2019-03-17T04:57:02.335Z,86.75
2019-03-17T05:00:08.756Z,86.59
2019-03-17T05:03:13.985Z,86.65
2019-03-17T05:06:19.254Z,88.10
2019-03-17T05:09:43.494Z,88.63
2019-03-17T05:12:48.729Z,88.58
2019-03-17T05:15:53.966Z,88.38
2019-03-17T05:18:59.221Z,88.09
2019-03-17T05:22:04.487Z,88.93
2019-03-17T05:25:09.851Z,89.52
2019-03-17T05:28:16.215Z,89.64
2019-03-17T05:31:21.516Z,89.94
2019-03-17T05:34:26.777Z,90.42
2019-03-17T05:37:31.979Z,91.32
2019-03-17T05:40:37.256Z,92.51
2019-03-17T05:43:42.528Z,94.80
2019-03-17T05:46:47.798Z,96.21
2019-03-17T05:49:54.185Z,98.69
2019-03-17T05:52:59.506Z,99.75
2019-03-17T05:56:04.792Z,100.66
2019-03-17T05:59:11.960Z,102.30
2019-03-17T06:02:17.173Z,102.54
2019-03-17T06:05:22.475Z,104.07
2019-03-17T06:08:27.821Z,105.59
2019-03-17T06:11:33.220Z,106.42
2019-03-17T06:14:38.451Z,107.19
2019-03-17T06:17:43.778Z,108.20
2019-03-17T06:20:49.105Z,109.44
2019-03-17T06:23:54.486Z,109.93
2019-03-17T06:26:59.822Z,109.63
2019-03-17T06:30:05.749Z,110.88
2019-03-17T06:33:11.080Z,111.52
2019-03-17T06:36:16.430Z,112.06
2019-03-17T06:39:23.866Z,112.24
2019-03-17T06:42:29.911Z,112.36
2019-03-17T06:45:35.228Z,112.08
2019-03-17T06:48:41.566Z,111.89
2019-03-17T06:51:49.581Z,111.15
2019-03-17T06:54:54.885Z,110.74
2019-03-17T06:58:00.146Z,110.73
2019-03-17T07:01:05.629Z,110.59
2019-03-17T07:04:11.000Z,110.82
2019-03-17T07:07:16.334Z,110.99
2019-03-17T07:10:21.804Z,111.32
2019-03-17T07:13:27.140Z,110.63
2019-03-17T07:16:32.447Z,111.16
2019-03-17T07:19:37.675Z,110.71
2019-03-17T07:22:43.059Z,110.34
2019-03-17T07:25:48.449Z,109.93
2019-03-17T07:28:53.701Z,110.31
2019-03-17T07:31:58.991Z,110.05
2019-03-17T07:35:04.418Z,109.86
2019-03-17T07:38:09.743Z,109.69
2019-03-17T07:41:15.109Z,110.26
2019-03-17T07:44:20.352Z,110.09
2019-03-17T07:47:25.663Z,109.83
2019-03-17T07:50:30.935Z,110.10
2019-03-17T07:53:36.210Z,109.83
2019-03-17T07:56:41.606Z,109.60
2019-03-17T07:59:46.910Z,109.96
2019-03-17T08:02:52.340Z,110.24
2019-03-17T08:05:57.616Z,109.89
2019-03-17T08:09:04.655Z,109.80
2019-03-17T08:12:09.959Z,109.68
2019-03-17T08:15:15.291Z,110.63
2019-03-17T08:18:20.528Z,110.76
2019-03-17T08:21:25.843Z,108.77
2019-03-17T08:24:31.177Z,107.38
2019-03-17T08:27:36.441Z,108.06
2019-03-17T08:30:52.494Z,110.44
2019-03-17T08:33:48.795Z,111.99
2019-03-17T08:36:54.213Z,112.01
2019-03-17T08:39:59.668Z,112.00
2019-03-17T08:43:05.077Z,111.42
2019-03-17T08:46:10.294Z,110.65
2019-03-17T08:49:16.660Z,110.44
2019-03-17T08:52:21.922Z,109.29
2019-03-17T08:55:27.161Z,108.92
2019-03-17T08:58:32.492Z,108.35
2019-03-17T09:01:37.786Z,109.15
2019-03-17T09:04:43.105Z,108.54
2019-03-17T09:07:48.425Z,107.48
2019-03-17T09:10:54.697Z,106.96
2019-03-17T09:14:00.052Z,105.74
2019-03-17T09:17:14.129Z,104.61
2019-03-17T09:20:12.364Z,102.81
2019-03-17T09:23:17.650Z,103.71
2019-03-17T09:26:22.996Z,101.96
2019-03-17T09:29:28.333Z,104.57
2019-03-17T09:32:33.609Z,102.39
2019-03-17T09:35:40.120Z,102.81
2019-03-17T09:38:47.476Z,102.55
2019-03-17T09:41:53.538Z,102.26
2019-03-17T09:44:58.993Z,100.41
2019-03-17T09:48:04.264Z,100.11
2019-03-17T09:51:10.806Z,100.71
2019-03-17T09:54:16.063Z,97.78
2019-03-17T09:57:21.373Z,97.63
2019-03-17T10:00:26.603Z,99.67
2019-03-17T10:03:31.889Z,100.51
2019-03-17T10:06:37.129Z,96.94
2019-03-17T10:09:42.439Z,97.90
2019-03-17T10:12:47.680Z,92.66
2019-03-17T10:15:53.011Z,93.74
2019-03-17T10:18:58.294Z,94.43
2019-03-17T10:22:03.590Z,93.79
2019-03-17T10:25:10.285Z,93.42
2019-03-17T10:28:19.053Z,93.36
2019-03-17T10:31:24.452Z,92.40
2019-03-17T10:34:29.655Z,91.91
2019-03-17T10:37:35.952Z,92.80
2019-03-17T10:40:41.353Z,90.04
2019-03-17T10:43:46.589Z,93.52
2019-03-17T10:46:51.825Z,88.88
2019-03-17T10:49:59.505Z,91.30
2019-03-17T10:53:04.765Z,91.66
2019-03-17T10:56:10.044Z,91.05
2019-03-17T10:59:15.285Z,89.78
2019-03-17T11:02:20.668Z,89.77
2019-03-17T11:05:25.912Z,87.77
2019-03-17T11:08:31.209Z,87.91
2019-03-17T11:11:36.553Z,86.85
2019-03-17T11:14:43.013Z,86.27
2019-03-17T11:17:48.284Z,85.21
2019-03-17T11:20:55.978Z,87.20
2019-03-17T11:24:01.409Z,89.20
2019-03-17T11:27:06.757Z,87.32
2019-03-17T11:30:12.716Z,87.62
2019-03-17T11:33:18.079Z,87.81
2019-03-17T11:36:23.331Z,90.42
2019-03-17T11:39:37.155Z,88.94
2019-03-17T11:42:35.650Z,88.71
2019-03-17T11:45:40.900Z,85.99
2019-03-17T11:48:46.134Z,85.52
2019-03-17T11:51:52.533Z,83.81
2019-03-17T11:54:57.819Z,81.13
2019-03-17T11:58:03.119Z,80.61
2019-03-17T12:01:08.373Z,83.31
2019-03-17T12:04:13.643Z,80.91
2019-03-17T12:07:19.015Z,82.67
2019-03-17T12:10:24.399Z,84.92
2019-03-17T12:13:29.848Z,88.89
2019-03-17T12:16:35.175Z,94.79
2019-03-17T12:19:42.935Z,100.86
2019-03-17T12:22:48.259Z,101.33
2019-03-17T12:25:53.742Z,102.04
2019-03-17T12:28:59.042Z,100.33
2019-03-17T12:32:04.302Z,100.40
2019-03-17T12:35:09.559Z,99.83
2019-03-17T12:38:14.861Z,97.01
2019-03-17T12:41:20.238Z,98.97
2019-03-17T12:44:25.527Z,99.07
2019-03-17T12:47:30.761Z,96.95
2019-03-17T12:50:36.030Z,97.84
2019-03-17T12:53:41.264Z,96.59
2019-03-17T12:56:46.588Z,96.98
2019-03-17T12:59:51.889Z,92.31
2019-03-17T13:02:57.250Z,91.76
2019-03-17T13:06:02.513Z,89.01
2019-03-17T13:09:08.157Z,84.96
2019-03-17T13:12:13.458Z,84.95
2019-03-17T13:15:18.769Z,81.47
2019-03-17T13:18:24.249Z,78.26
2019-03-17T13:21:29.504Z,73.79
2019-03-17T13:24:38.196Z,74.66
2019-03-17T13:27:43.445Z,79.23
2019-03-17T13:30:49.643Z,75.98
2019-03-17T13:33:55.159Z,76.22
2019-03-17T13:37:00.485Z,71.79
2019-03-17T13:40:07.174Z,73.59
2019-03-17T13:43:12.398Z,71.95
2019-03-17T13:46:17.677Z,71.24
2019-03-17T13:49:22.916Z,68.97
2019-03-17T13:52:28.227Z,69.85
2019-03-17T13:55:33.502Z,78.55
2019-03-17T13:58:38.809Z,79.52
2019-03-17T14:01:47.961Z,81.55
2019-03-17T14:04:54.830Z,83.15
2019-03-17T14:08:00.287Z,82.40
2019-03-17T14:11:05.682Z,83.84
2019-03-17T14:14:10.928Z,83.40
2019-03-17T14:17:16.249Z,84.37
2019-03-17T14:20:21.589Z,86.80
2019-03-17T14:23:26.983Z,88.43
2019-03-17T14:26:32.251Z,88.39
2019-03-17T14:29:37.543Z,89.87
2019-03-17T14:32:42.826Z,93.24
2019-03-17T14:35:48.189Z,99.95
2019-03-17T14:38:53.428Z,100.33
2019-03-17T14:41:58.762Z,101.43
2019-03-17T14:45:04.296Z,100.76
2019-03-17T14:48:09.574Z,100.71
2019-03-17T14:51:14.902Z,98.50
2019-03-17T14:54:21.285Z,99.15
2019-03-17T14:57:26.597Z,96.44
2019-03-17T15:00:31.963Z,96.72
2019-03-17T15:03:37.253Z,97.24
2019-03-17T15:06:44.132Z,96.39
2019-03-17T15:09:50.750Z,97.40
2019-03-17T15:12:56.008Z,96.44
2019-03-17T15:16:03.075Z,94.45
2019-03-17T15:19:08.319Z,92.78
2019-03-17T15:22:13.603Z,91.99
2019-03-17T15:25:19.056Z,92.12
2019-03-17T15:28:24.414Z,90.68
2019-03-17T15:31:29.702Z,92.75
2019-03-17T15:34:35.148Z,87.91
2019-03-17T15:37:40.463Z,90.84
2019-03-17T15:40:45.747Z,90.80
2019-03-17T15:43:51.104Z,85.44
2019-03-17T15:46:56.359Z,84.92
2019-03-17T15:50:01.621Z,83.67
2019-03-17T15:53:06.976Z,84.27
2019-03-17T15:56:12.249Z,87.14
2019-03-17T15:59:17.584Z,85.57
2019-03-17T16:02:27.680Z,85.48
2019-03-17T16:05:31.480Z,86.36
2019-03-17T16:08:39.063Z,86.71
2019-03-17T16:11:44.444Z,87.34
2019-03-17T16:14:49.718Z,83.64
2019-03-17T16:17:54.988Z,84.90
2019-03-17T16:21:00.328Z,82.59
2019-03-17T16:24:05.754Z,82.89
2019-03-17T16:27:15.534Z,81.62
2019-03-17T16:30:21.250Z,80.09
2019-03-17T16:33:26.627Z,83.08
2019-03-17T16:36:31.989Z,80.56
2019-03-17T16:39:37.202Z,78.03
2019-03-17T16:42:42.462Z,79.24
2019-03-17T16:45:49.424Z,82.09
2019-03-17T16:48:57.251Z,82.09
2019-03-17T16:52:02.559Z,81.88
2019-03-17T16:55:07.926Z,83.48
2019-03-17T16:58:13.203Z,84.40
2019-03-17T17:01:18.493Z,85.15
2019-03-17T17:04:23.782Z,86.62
2019-03-17T17:07:30.436Z,85.04
2019-03-17T17:10:38.179Z,86.01
2019-03-17T17:13:42.668Z,87.44
2019-03-17T17:16:48.058Z,88.76
2019-03-17T17:19:53.343Z,88.87
2019-03-17T17:22:58.703Z,89.89
2019-03-17T17:26:04.010Z,88.22
2019-03-17T17:29:09.299Z,89.41
2019-03-17T17:32:14.622Z,90.27
2019-03-17T17:35:19.883Z,90.52
2019-03-17T17:38:25.248Z,91.58
2019-03-17T17:41:31.296Z,92.48
2019-03-17T17:44:36.571Z,93.58
2019-03-17T17:47:44.118Z,94.27
2019-03-17T17:50:49.457Z,94.38
2019-03-17T17:53:54.772Z,95.12
2019-03-17T17:57:00.011Z,96.95
2019-03-17T18:00:06.101Z,97.93
2019-03-17T18:03:11.450Z,99.42
2019-03-17T18:06:16.676Z,99.11
2019-03-17T18:09:21.938Z,98.67
2019-03-17T18:12:27.218Z,99.18
2019-03-17T18:15:32.578Z,100.95
2019-03-17T18:18:37.862Z,100.83
2019-03-17T18:21:43.268Z,98.13
2019-03-17T18:24:48.611Z,98.26
2019-03-17T18:27:53.982Z,98.51
2019-03-17T18:30:59.242Z,96.72
2019-03-17T18:34:04.520Z,96.83
2019-03-17T18:37:11.445Z,96.31
2019-03-17T18:40:18.532Z,94.55
2019-03-17T18:43:24.001Z,95.46
2019-03-17T18:46:29.310Z,96.11
2019-03-17T18:49:34.633Z,96.09
2019-03-17T18:52:39.921Z,96.31
2019-03-17T18:55:45.261Z,96.84
2019-03-17T18:58:50.607Z,98.25
2019-03-17T19:01:55.932Z,100.04
2019-03-17T19:05:01.201Z,99.65
2019-03-17T19:08:07.440Z,96.12
2019-03-17T19:11:12.811Z,95.37
2019-03-17T19:14:18.541Z,97.01
2019-03-17T19:17:24.021Z,99.11
2019-03-17T19:20:29.396Z,98.89
2019-03-17T19:23:34.641Z,98.76
2019-03-17T19:26:39.932Z,99.85
2019-03-17T19:29:45.255Z,100.26
2019-03-17T19:32:50.721Z,101.04
2019-03-17T19:35:56.155Z,100.58
2019-03-17T19:39:02.746Z,101.81
2019-03-17T19:42:08.071Z,101.56
2019-03-17T19:45:14.942Z,99.61
2019-03-17T19:48:20.586Z,98.98
2019-03-17T19:51:25.995Z,98.92
2019-03-17T19:54:31.292Z,100.10
2019-03-17T19:57:36.649Z,101.04
2019-03-17T20:00:42.046Z,101.71
2019-03-17T20:03:47.366Z,98.27
2019-03-17T20:06:52.651Z,95.25
2019-03-17T20:09:58.056Z,94.80
2019-03-17T20:13:11.521Z,96.95
2019-03-17T20:16:10.301Z,95.80
2019-03-17T20:19:15.553Z,96.33
2019-03-17T20:22:20.910Z,97.40
2019-03-17T20:25:26.207Z,96.75
2019-03-17T20:28:31.533Z,95.37
2019-03-17T20:31:47.658Z,95.18
2019-03-17T20:34:48.283Z,94.60
2019-03-17T20:37:53.580Z,95.60
2019-03-17T20:40:58.895Z,96.52
2019-03-17T20:44:04.266Z,98.10
2019-03-17T20:47:09.557Z,98.11
2019-03-17T20:50:17.326Z,95.74
2019-03-17T20:53:22.657Z,93.62
2019-03-17T20:56:29.370Z,93.53
2019-03-17T20:59:34.632Z,95.48
2019-03-17T21:02:41.010Z,96.82
2019-03-17T21:05:53.605Z,97.96
2019-03-17T21:08:55.847Z,96.59
2019-03-17T21:12:03.142Z,96.21
2019-03-17T21:15:10.104Z,97.20
2019-03-17T21:18:15.486Z,97.86
2019-03-17T21:21:20.867Z,95.52
2019-03-17T21:24:26.246Z,95.75
2019-03-17T21:27:31.679Z,95.34
2019-03-17T21:30:37.034Z,92.89
2019-03-17T21:33:42.394Z,94.79
2019-03-17T21:36:47.741Z,95.16
2019-03-17T21:39:53.177Z,95.88
2019-03-17T21:42:59.601Z,95.98
2019-03-17T21:46:04.942Z,94.51
2019-03-17T21:49:10.226Z,94.79
2019-03-17T21:52:15.604Z,94.51
2019-03-17T21:55:21.904Z,95.98
2019-03-17T21:58:31.290Z,94.89
2019-03-17T22:01:36.721Z,95.28
2019-03-17T22:04:42.189Z,96.66
2019-03-17T22:07:50.591Z,96.72
2019-03-17T22:10:54.527Z,95.35
2019-03-17T22:14:11.616Z,96.65
2019-03-17T22:17:06.808Z,96.19
2019-03-17T22:20:12.344Z,96.25
2019-03-17T22:23:17.735Z,97.12
2019-03-17T22:26:23.239Z,96.25
2019-03-17T22:29:28.581Z,96.58
2019-03-17T22:32:33.887Z,96.70
2019-03-17T22:35:40.639Z,95.99
2019-03-17T22:38:49.234Z,96.92
2019-03-17T22:41:54.639Z,95.99
2019-03-17T22:45:00.025Z,97.16
2019-03-17T22:48:05.472Z,96.66
2019-03-17T22:51:10.765Z,96.73
2019-03-17T22:54:16.154Z,96.12
2019-03-17T22:57:21.355Z,96.16
2019-03-17T23:00:45.856Z,96.05
2019-03-17T23:03:53.624Z,97.19
2019-03-17T23:06:58.948Z,97.52
2019-03-17T23:10:04.871Z,98.18
2019-03-17T23:13:10.120Z,97.78
2019-03-17T23:16:15.455Z,98.65
2019-03-17T23:19:20.863Z,99.01
2019-03-17T23:22:33.721Z,99.40
2019-03-17T23:25:39.289Z,99.25
2019-03-17T23:28:44.747Z,99.14
2019-03-17T23:31:50.750Z,100.20
2019-03-17T23:34:56.974Z,100.15
2019-03-17T23:38:02.332Z,99.82
2019-03-17T23:41:07.694Z,99.85
2019-03-17T23:44:13.028Z,100.02
2019-03-17T23:47:18.363Z,100.75
2019-03-17T23:50:23.614Z,100.18
2019-03-17T23:53:28.935Z,100.60
2019-03-17T23:56:34.207Z,100.26
2019-03-17T23:59:41.395Z,100.59
